createdAt,value
2023-05-06T00:00:10.026Z,10.97
2023-05-06T00:03:01.212Z,10.98
2023-05-06T00:05:29.799Z,10.99
2023-05-06T00:07:58.237Z,10.99
2023-05-06T00:10:26.807Z,10.98
2023-05-06T00:12:55.205Z,10.96
2023-05-06T00:15:23.746Z,10.97
2023-05-06T00:17:52.175Z,10.97
2023-05-06T00:20:20.686Z,10.96
2023-05-06T00:22:49.277Z,10.92
2023-05-06T00:25:18.000Z,10.89
2023-05-06T00:27:46.474Z,10.86
2023-05-06T00:30:14.929Z,10.84
2023-05-06T00:32:43.551Z,10.84
2023-05-06T00:35:13.080Z,10.84
2023-05-06T00:37:46.226Z,10.86
2023-05-06T00:40:14.844Z,10.88
2023-05-06T00:42:43.405Z,10.89
2023-05-06T00:45:12.426Z,10.90
2023-05-06T00:47:41.410Z,10.89
2023-05-06T00:50:10.472Z,10.86
2023-05-06T00:52:38.977Z,10.84
2023-05-06T00:55:09.120Z,10.83
2023-05-06T00:57:39.692Z,10.82
2023-05-06T01:00:11.111Z,10.80
2023-05-06T01:02:47.114Z,10.80
2023-05-06T01:05:17.591Z,10.80
2023-05-06T01:07:52.366Z,10.78
2023-05-06T01:10:27.662Z,10.74
2023-05-06T01:13:05.791Z,10.71
2023-05-06T01:15:40.415Z,10.70
2023-05-06T01:18:11.264Z,10.68
2023-05-06T01:20:42.142Z,10.66
2023-05-06T01:23:12.501Z,10.65
2023-05-06T01:25:41.434Z,10.62
2023-05-06T01:28:11.116Z,10.57
2023-05-06T01:30:48.668Z,10.53
2023-05-06T01:33:24.007Z,10.49
2023-05-06T01:36:00.302Z,10.48
2023-05-06T01:38:34.542Z,10.45
2023-05-06T01:41:03.764Z,10.41
2023-05-06T01:43:40.404Z,10.34
2023-05-06T01:46:15.317Z,10.30
2023-05-06T01:48:45.310Z,10.31
2023-05-06T01:51:13.853Z,10.33
2023-05-06T01:53:42.484Z,10.35
2023-05-06T01:56:10.932Z,10.34
2023-05-06T01:58:39.607Z,10.32
2023-05-06T02:01:08.197Z,10.34
2023-05-06T02:03:36.926Z,10.38
2023-05-06T02:06:05.815Z,10.40
2023-05-06T02:08:39.913Z,10.41
2023-05-06T02:11:08.610Z,10.38
2023-05-06T02:13:37.390Z,10.37
2023-05-06T02:16:08.188Z,10.38
2023-05-06T02:18:36.883Z,10.41
2023-05-06T02:21:06.869Z,10.42
2023-05-06T02:23:35.364Z,10.42
2023-05-06T02:26:04.468Z,10.43
2023-05-06T02:28:34.697Z,10.39
2023-05-06T02:31:03.059Z,10.33
2023-05-06T02:33:31.472Z,10.25
2023-05-06T02:35:59.858Z,10.15
2023-05-06T02:38:28.284Z,10.06
2023-05-06T02:40:57.038Z,9.94
2023-05-06T02:43:25.800Z,9.88
2023-05-06T02:45:54.434Z,9.82
2023-05-06T02:48:23.098Z,9.79
2023-05-06T02:50:52.098Z,9.75
2023-05-06T02:53:20.610Z,9.75
2023-05-06T02:55:49.025Z,9.72
2023-05-06T02:58:17.659Z,9.72
2023-05-06T03:00:46.095Z,9.72
2023-05-06T03:03:14.542Z,9.74
2023-05-06T03:05:43.044Z,9.75
2023-05-06T03:08:11.503Z,9.78
2023-05-06T03:10:40.526Z,9.80
2023-05-06T03:13:09.121Z,9.86
2023-05-06T03:15:37.991Z,9.90
2023-05-06T03:18:06.561Z,9.95
2023-05-06T03:20:35.344Z,9.99
2023-05-06T03:23:03.936Z,10.00
2023-05-06T03:25:32.407Z,10.03
2023-05-06T03:28:01.055Z,10.08
2023-05-06T03:30:29.875Z,10.13
2023-05-06T03:33:01.252Z,10.17
2023-05-06T03:35:31.694Z,10.21
2023-05-06T03:38:01.362Z,10.21
2023-05-06T03:40:36.459Z,10.18
2023-05-06T03:43:05.154Z,10.22
2023-05-06T03:45:34.375Z,10.27
2023-05-06T03:48:03.829Z,10.31
2023-05-06T03:50:32.833Z,10.33
2023-05-06T03:53:01.609Z,10.34
2023-05-06T03:55:30.656Z,10.32
2023-05-06T03:57:59.183Z,10.30
2023-05-06T04:00:27.875Z,10.32
2023-05-06T04:02:56.603Z,10.37
2023-05-06T04:05:33.741Z,10.44
2023-05-06T04:08:03.604Z,10.47
2023-05-06T04:10:32.058Z,10.43
2023-05-06T04:13:05.726Z,10.34
2023-05-06T04:15:40.897Z,10.31
2023-05-06T04:18:14.754Z,10.26
2023-05-06T04:20:45.337Z,10.19
2023-05-06T04:23:13.982Z,10.11
2023-05-06T04:25:43.621Z,10.06
2023-05-06T04:28:12.306Z,10.05
2023-05-06T04:30:40.913Z,10.07
2023-05-06T04:33:10.064Z,10.12
2023-05-06T04:35:39.291Z,10.19
2023-05-06T04:38:09.246Z,10.27
2023-05-06T04:40:40.116Z,10.36
2023-05-06T04:43:09.829Z,10.48
2023-05-06T04:45:39.552Z,10.57
2023-05-06T04:48:09.282Z,10.63
2023-05-06T04:50:37.835Z,10.69
2023-05-06T04:53:06.312Z,10.75
2023-05-06T04:55:35.506Z,10.83
2023-05-06T04:58:03.890Z,10.89
2023-05-06T05:00:32.675Z,10.95
2023-05-06T05:03:01.534Z,11.02
2023-05-06T05:05:30.755Z,11.10
2023-05-06T05:08:00.535Z,11.15
2023-05-06T05:10:29.598Z,11.22
2023-05-06T05:12:58.631Z,11.28
2023-05-06T05:15:27.372Z,11.33
2023-05-06T05:17:56.195Z,11.36
2023-05-06T05:20:24.921Z,11.39
2023-05-06T05:22:53.512Z,11.42
2023-05-06T05:25:21.986Z,11.46
2023-05-06T05:27:50.609Z,11.49
2023-05-06T05:30:20.168Z,11.51
2023-05-06T05:32:49.176Z,11.52
2023-05-06T05:35:18.650Z,11.56
2023-05-06T05:37:47.261Z,11.59
2023-05-06T05:40:15.975Z,11.62
2023-05-06T05:42:44.755Z,11.68
2023-05-06T05:45:20.624Z,11.75
2023-05-06T05:47:49.695Z,11.84
2023-05-06T05:50:25.506Z,11.91
2023-05-06T05:52:54.314Z,11.97
2023-05-06T05:55:28.597Z,12.02
2023-05-06T05:57:59.211Z,12.06
2023-05-06T06:00:28.755Z,12.08
2023-05-06T06:03:05.543Z,12.12
2023-05-06T06:05:34.840Z,12.17
2023-05-06T06:08:04.062Z,12.22
2023-05-06T06:10:50.012Z,12.23
2023-05-06T06:13:22.039Z,12.26
2023-05-06T06:15:51.519Z,12.32
2023-05-06T06:18:20.128Z,12.40
2023-05-06T06:20:53.106Z,12.50
2023-05-06T06:23:25.538Z,12.62
2023-05-06T06:26:00.133Z,12.74
2023-05-06T06:28:41.272Z,12.83
2023-05-06T06:31:09.775Z,12.95
2023-05-06T06:33:42.995Z,13.01
2023-05-06T06:36:16.537Z,13.05
2023-05-06T06:38:48.503Z,13.06
2023-05-06T06:41:24.036Z,13.04
2023-05-06T06:44:03.347Z,13.02
2023-05-06T06:46:36.339Z,12.96
2023-05-06T06:49:11.114Z,12.94
2023-05-06T06:51:39.900Z,12.94
2023-05-06T06:54:16.108Z,12.95
2023-05-06T06:56:44.501Z,12.97
2023-05-06T06:59:13.084Z,13.00
2023-05-06T07:01:42.611Z,13.02
2023-05-06T07:04:11.126Z,13.01
2023-05-06T07:06:39.557Z,13.01
2023-05-06T07:09:08.179Z,13.03
2023-05-06T07:11:36.680Z,13.06
2023-05-06T07:14:05.070Z,13.08
2023-05-06T07:16:33.660Z,13.11
2023-05-06T07:19:02.092Z,13.15
2023-05-06T07:21:31.669Z,13.21
2023-05-06T07:24:00.428Z,13.26
2023-05-06T07:26:28.898Z,13.30
2023-05-06T07:28:57.332Z,13.34
2023-05-06T07:31:26.190Z,13.39
2023-05-06T07:33:54.804Z,13.44
2023-05-06T07:36:23.246Z,13.43
2023-05-06T07:38:51.811Z,13.43
2023-05-06T07:41:20.678Z,13.40
2023-05-06T07:43:49.166Z,13.38
2023-05-06T07:46:17.864Z,13.41
2023-05-06T07:48:46.358Z,13.40
2023-05-06T07:51:14.803Z,13.35
2023-05-06T07:53:43.191Z,13.41
2023-05-06T07:56:11.644Z,13.48
2023-05-06T07:58:40.249Z,13.53
2023-05-06T08:01:08.744Z,13.54
2023-05-06T08:03:37.549Z,13.51
2023-05-06T08:06:06.775Z,13.44
2023-05-06T08:08:35.317Z,13.35
2023-05-06T08:11:03.979Z,13.29
2023-05-06T08:13:33.152Z,13.21
2023-05-06T08:16:01.809Z,13.10
2023-05-06T08:18:30.549Z,13.04
2023-05-06T08:21:00.017Z,12.99
2023-05-06T08:23:28.505Z,12.94
2023-05-06T08:25:57.102Z,12.89
2023-05-06T08:28:25.915Z,12.84
2023-05-06T08:30:54.701Z,12.77
2023-05-06T08:33:23.333Z,12.72
2023-05-06T08:35:52.739Z,12.76
2023-05-06T08:38:21.186Z,12.78
2023-05-06T08:40:52.049Z,12.77
2023-05-06T08:43:21.528Z,12.75
2023-05-06T08:45:50.418Z,12.74
2023-05-06T08:48:19.298Z,12.69
2023-05-06T08:50:51.324Z,12.61
2023-05-06T08:53:19.756Z,12.50
2023-05-06T08:55:51.455Z,12.36
2023-05-06T08:58:20.986Z,12.20
2023-05-06T09:00:49.553Z,12.12
2023-05-06T09:03:18.259Z,12.07
2023-05-06T09:05:46.868Z,12.04
2023-05-06T09:08:15.618Z,12.03
2023-05-06T09:10:44.747Z,12.06
2023-05-06T09:13:14.014Z,12.07
2023-05-06T09:15:43.505Z,12.07
2023-05-06T09:18:12.054Z,12.04
2023-05-06T09:20:42.524Z,12.01
2023-05-06T09:23:11.886Z,12.01
2023-05-06T09:25:40.728Z,11.98
2023-05-06T09:28:11.052Z,11.91
2023-05-06T09:30:40.419Z,11.81
2023-05-06T09:33:09.683Z,11.72
2023-05-06T09:35:39.426Z,11.59
2023-05-06T09:38:08.425Z,11.50
2023-05-06T09:40:38.017Z,11.42
2023-05-06T09:43:07.137Z,11.34
2023-05-06T09:45:36.852Z,11.28
2023-05-06T09:48:06.231Z,11.22
2023-05-06T09:50:35.538Z,11.16
2023-05-06T09:53:05.388Z,11.14
2023-05-06T09:55:34.807Z,11.14
2023-05-06T09:58:05.729Z,11.13
2023-05-06T10:00:35.198Z,11.11
2023-05-06T10:03:05.798Z,11.13
2023-05-06T10:05:35.823Z,11.18
2023-05-06T10:08:05.160Z,11.18
2023-05-06T10:10:34.616Z,11.12
2023-05-06T10:13:07.491Z,11.09
2023-05-06T10:15:37.704Z,11.09
2023-05-06T10:18:08.156Z,11.10
2023-05-06T10:20:40.723Z,11.11
2023-05-06T10:23:20.465Z,11.12
2023-05-06T10:25:53.274Z,11.14
2023-05-06T10:28:26.724Z,11.12
2023-05-06T10:30:59.971Z,11.08
2023-05-06T10:33:29.296Z,11.02
2023-05-06T10:36:19.470Z,10.99
2023-05-06T10:38:55.789Z,10.97
2023-05-06T10:41:27.259Z,10.96
2023-05-06T10:43:57.249Z,10.97
2023-05-06T10:46:27.333Z,11.01
2023-05-06T10:49:16.020Z,11.01
2023-05-06T10:51:48.624Z,11.00
2023-05-06T10:54:24.257Z,11.00
2023-05-06T10:57:10.364Z,11.01
2023-05-06T10:59:46.513Z,11.07
2023-05-06T11:02:19.226Z,11.08
2023-05-06T11:04:52.486Z,11.11
2023-05-06T11:07:24.374Z,11.14
2023-05-06T11:09:57.682Z,11.19
2023-05-06T11:12:47.174Z,11.27
2023-05-06T11:15:25.869Z,11.39
2023-05-06T11:17:55.564Z,11.53
2023-05-06T11:20:25.983Z,11.64
2023-05-06T11:22:54.676Z,11.73
2023-05-06T11:25:40.239Z,11.85
2023-05-06T11:28:10.445Z,11.95
2023-05-06T11:30:41.614Z,12.02
2023-05-06T11:33:17.974Z,12.13
2023-05-06T11:35:47.685Z,12.23
2023-05-06T11:38:16.302Z,12.28
2023-05-06T11:40:44.858Z,12.30
2023-05-06T11:43:14.699Z,12.30
2023-05-06T11:45:44.381Z,12.32
2023-05-06T11:48:13.814Z,12.33
2023-05-06T11:50:46.568Z,12.38
2023-05-06T11:53:18.240Z,12.43
2023-05-06T11:55:47.546Z,12.51
2023-05-06T11:58:17.921Z,12.59
2023-05-06T12:00:51.405Z,12.69
2023-05-06T12:03:20.955Z,12.76
2023-05-06T12:05:50.422Z,12.80
2023-05-06T12:08:28.447Z,12.83
2023-05-06T12:11:01.325Z,12.89
2023-05-06T12:13:30.265Z,12.99
2023-05-06T12:16:00.790Z,13.13
2023-05-06T12:18:30.052Z,13.30
2023-05-06T12:21:02.384Z,13.44
2023-05-06T12:23:30.983Z,13.58
2023-05-06T12:26:04.505Z,13.69
2023-05-06T12:28:35.368Z,13.78
2023-05-06T12:31:18.830Z,13.81
2023-05-06T12:33:49.255Z,13.83
2023-05-06T12:36:18.189Z,13.85
2023-05-06T12:38:53.646Z,13.89
2023-05-06T12:41:23.189Z,14.02
2023-05-06T12:43:52.224Z,14.15
2023-05-06T12:46:20.820Z,14.22
2023-05-06T12:48:59.620Z,14.29
2023-05-06T12:51:30.118Z,14.36
2023-05-06T12:53:58.761Z,14.41
2023-05-06T12:56:27.346Z,14.48
2023-05-06T12:59:00.312Z,14.59
2023-05-06T13:01:28.836Z,14.66
2023-05-06T13:03:57.603Z,14.70
2023-05-06T13:06:26.087Z,14.77
2023-05-06T13:08:54.518Z,14.84
2023-05-06T13:11:25.114Z,14.90
2023-05-06T13:13:53.597Z,15.00
2023-05-06T13:16:22.213Z,14.99
2023-05-06T13:18:50.815Z,15.02
2023-05-06T13:21:19.294Z,15.08
2023-05-06T13:23:48.108Z,15.20
2023-05-06T13:26:17.148Z,15.22
2023-05-06T13:28:45.743Z,15.18
2023-05-06T13:31:14.327Z,15.12
2023-05-06T13:33:42.854Z,15.06
2023-05-06T13:36:11.320Z,15.01
2023-05-06T13:38:39.929Z,15.00
2023-05-06T13:41:08.491Z,15.03
2023-05-06T13:43:36.934Z,15.06
2023-05-06T13:46:05.617Z,15.08
2023-05-06T13:48:34.409Z,15.15
2023-05-06T13:51:02.959Z,15.24
2023-05-06T13:53:31.282Z,15.27
2023-05-06T13:55:59.920Z,15.30
2023-05-06T13:58:28.365Z,15.31
2023-05-06T14:00:56.806Z,15.22
2023-05-06T14:03:25.398Z,15.05
2023-05-06T14:05:54.128Z,14.97
2023-05-06T14:08:22.582Z,14.93
2023-05-06T14:10:51.114Z,14.94
2023-05-06T14:13:19.717Z,14.94
2023-05-06T14:15:48.356Z,14.95
2023-05-06T14:18:17.368Z,15.02
2023-05-06T14:20:45.675Z,15.13
2023-05-06T14:23:14.129Z,15.26
2023-05-06T14:25:42.546Z,15.33
2023-05-06T14:28:12.144Z,15.34
2023-05-06T14:30:40.872Z,15.33
2023-05-06T14:33:09.899Z,15.28
2023-05-06T14:35:41.442Z,15.23
2023-05-06T14:38:10.410Z,15.14
2023-05-06T14:40:39.033Z,15.06
2023-05-06T14:43:08.063Z,14.97
2023-05-06T14:45:36.712Z,14.92
2023-05-06T14:48:07.000Z,14.93
2023-05-06T14:50:35.547Z,14.90
2023-05-06T14:53:04.229Z,14.82
2023-05-06T14:55:32.919Z,14.75
2023-05-06T14:58:01.419Z,14.67
2023-05-06T15:00:29.979Z,14.57
2023-05-06T15:02:58.760Z,14.47
2023-05-06T15:05:27.307Z,14.44
2023-05-06T15:07:55.740Z,14.44
2023-05-06T15:10:24.212Z,14.42
2023-05-06T15:12:52.682Z,14.35
2023-05-06T15:15:21.495Z,14.25
2023-05-06T15:17:51.672Z,14.23
2023-05-06T15:20:20.105Z,14.23
2023-05-06T15:22:48.539Z,14.28
2023-05-06T15:25:26.543Z,14.30
2023-05-06T15:28:02.348Z,14.22
2023-05-06T15:30:30.963Z,14.14
2023-05-06T15:32:59.811Z,14.11
2023-05-06T15:35:28.618Z,14.07
2023-05-06T15:37:58.243Z,14.06
2023-05-06T15:40:26.986Z,14.07
2023-05-06T15:42:55.624Z,14.14
2023-05-06T15:45:24.095Z,14.18
2023-05-06T15:47:53.588Z,14.17
2023-05-06T15:50:32.738Z,14.17
2023-05-06T15:53:02.614Z,14.20
2023-05-06T15:55:35.171Z,14.20
2023-05-06T15:58:09.948Z,14.19
2023-05-06T16:00:38.443Z,14.18
2023-05-06T16:03:09.733Z,14.19
2023-05-06T16:05:41.061Z,14.20
2023-05-06T16:08:09.472Z,14.16
2023-05-06T16:10:38.261Z,14.11
2023-05-06T16:13:06.863Z,14.08
2023-05-06T16:15:35.719Z,14.09
2023-05-06T16:18:04.660Z,14.09
2023-05-06T16:20:33.686Z,14.02
2023-05-06T16:23:02.643Z,13.96
2023-05-06T16:25:31.393Z,13.94
2023-05-06T16:27:59.928Z,13.95
2023-05-06T16:30:28.474Z,13.99
2023-05-06T16:32:56.923Z,14.03
2023-05-06T16:35:25.657Z,14.06
2023-05-06T16:37:54.073Z,14.09
2023-05-06T16:40:22.404Z,14.13
2023-05-06T16:42:51.057Z,14.16
2023-05-06T16:45:20.010Z,14.16
2023-05-06T16:47:48.616Z,14.15
2023-05-06T16:50:17.300Z,14.09
2023-05-06T16:52:45.672Z,14.02
2023-05-06T16:55:14.169Z,13.93
2023-05-06T16:57:42.644Z,13.87
2023-05-06T17:00:12.803Z,13.83
2023-05-06T17:02:41.564Z,13.80
2023-05-06T17:05:10.342Z,13.77
2023-05-06T17:07:39.103Z,13.72
2023-05-06T17:10:09.808Z,13.66
2023-05-06T17:14:53.089Z,13.60
2023-05-06T17:17:29.190Z,13.52
2023-05-06T17:20:00.978Z,13.51
2023-05-06T17:22:32.873Z,13.51
2023-05-06T17:25:05.155Z,13.51
2023-05-06T17:27:36.907Z,13.49
2023-05-06T17:30:11.958Z,13.46
2023-05-06T17:32:44.387Z,13.44
2023-05-06T17:35:14.990Z,13.43
2023-05-06T17:37:46.853Z,13.40
2023-05-06T17:40:21.189Z,13.37
2023-05-06T17:42:53.207Z,13.33
2023-05-06T17:45:25.337Z,13.30
2023-05-06T17:47:57.353Z,13.23
2023-05-06T17:50:27.536Z,13.18
2023-05-06T17:52:59.405Z,13.13
2023-05-06T17:55:31.353Z,13.10
2023-05-06T17:58:03.276Z,13.07
2023-05-06T18:00:35.535Z,13.03
2023-05-06T18:03:07.494Z,12.99
2023-05-06T18:05:37.982Z,12.95
2023-05-06T18:08:09.920Z,12.90
2023-05-06T18:10:41.903Z,12.85
2023-05-06T18:13:12.336Z,12.83
2023-05-06T18:15:44.160Z,12.81
2023-05-06T18:18:16.079Z,12.78
2023-05-06T18:20:47.923Z,12.77
2023-05-06T18:23:19.615Z,12.77
2023-05-06T18:25:51.467Z,12.77
2023-05-06T18:28:23.343Z,12.73
2023-05-06T18:30:53.939Z,12.70
2023-05-06T18:33:25.898Z,12.65
2023-05-06T18:35:56.406Z,12.57
2023-05-06T18:38:45.837Z,12.51
2023-05-06T18:41:33.733Z,12.47
2023-05-06T18:44:09.455Z,12.43
2023-05-06T18:47:01.780Z,12.39
2023-05-06T18:49:51.109Z,12.36
2023-05-06T18:52:26.145Z,12.33
2023-05-06T18:54:58.745Z,12.31
2023-05-06T18:57:30.504Z,12.30
2023-05-06T19:00:02.393Z,12.28
2023-05-06T19:02:34.379Z,12.26
2023-05-06T19:05:09.127Z,12.24
2023-05-06T19:07:59.413Z,12.24
2023-05-06T19:10:38.622Z,12.23
2023-05-06T19:13:14.095Z,12.22
2023-05-06T19:15:48.792Z,12.22
2023-05-06T19:18:21.749Z,12.21
2023-05-06T19:21:04.429Z,12.22
2023-05-06T19:23:43.286Z,12.23
2023-05-06T19:26:19.485Z,12.23
2023-05-06T19:29:00.063Z,12.22
2023-05-06T19:32:09.134Z,12.22
2023-05-06T19:34:44.626Z,12.22
2023-05-06T19:37:20.136Z,12.20
2023-05-06T19:39:52.109Z,12.20
2023-05-06T19:42:22.504Z,12.19
2023-05-06T19:44:54.411Z,12.15
2023-05-06T19:47:27.024Z,12.13
2023-05-06T19:49:59.422Z,12.13
2023-05-06T19:52:33.389Z,12.12
2023-05-06T19:55:06.110Z,12.10
2023-05-06T19:57:38.082Z,12.06
2023-05-06T20:00:11.779Z,12.03
2023-05-06T20:02:43.962Z,11.97
2023-05-06T20:05:16.045Z,11.91
2023-05-06T20:07:46.674Z,11.87
2023-05-06T20:10:18.585Z,11.81
2023-05-06T20:15:26.854Z,11.63
2023-05-06T20:17:58.937Z,11.46
2023-05-06T20:20:37.174Z,11.33
2023-05-06T20:23:09.536Z,11.18
2023-05-06T20:25:42.055Z,11.04
2023-05-06T20:28:14.038Z,10.90
2023-05-06T20:30:45.780Z,10.83
2023-05-06T20:33:17.719Z,10.75
2023-05-06T20:35:51.024Z,10.69
2023-05-06T20:38:22.873Z,10.65
2023-05-06T20:40:54.591Z,10.58
2023-05-06T20:43:26.475Z,10.50
2023-05-06T20:45:58.336Z,10.43
2023-05-06T20:48:31.334Z,10.35
2023-05-06T20:51:03.012Z,10.29
2023-05-06T20:53:34.940Z,10.27
2023-05-06T20:56:07.434Z,10.23
2023-05-06T20:58:39.223Z,10.20
2023-05-06T21:01:10.977Z,10.18
2023-05-06T21:03:43.036Z,10.16
2023-05-06T21:06:14.984Z,10.12
2023-05-06T21:08:47.639Z,10.07
2023-05-06T21:11:19.383Z,10.01
2023-05-06T21:13:51.174Z,9.95
2023-05-06T21:16:22.952Z,9.89
2023-05-06T21:18:54.827Z,9.85
2023-05-06T21:21:27.210Z,9.80
2023-05-06T21:23:59.132Z,9.77
2023-05-06T21:26:32.198Z,9.72
2023-05-06T21:29:04.181Z,9.71
2023-05-06T21:31:36.228Z,9.73
2023-05-06T21:34:08.124Z,9.70
2023-05-06T21:36:39.843Z,9.67
2023-05-06T21:39:15.214Z,9.63
2023-05-06T21:41:46.856Z,9.60
2023-05-06T21:44:18.718Z,9.58
2023-05-06T21:46:50.492Z,9.58
2023-05-06T21:49:22.808Z,9.61
2023-05-06T21:51:54.551Z,9.63
2023-05-06T21:54:26.459Z,9.62
2023-05-06T21:56:58.360Z,9.61
2023-05-06T21:59:30.236Z,9.64
2023-05-06T22:02:02.138Z,9.69
2023-05-06T22:04:33.898Z,9.73
2023-05-06T22:07:05.704Z,9.70
2023-05-06T22:09:37.483Z,9.68
2023-05-06T22:12:11.627Z,9.66
2023-05-06T22:14:43.405Z,9.64
2023-05-06T22:17:15.667Z,9.64
2023-05-06T22:19:47.671Z,9.66
2023-05-06T22:22:20.209Z,9.74
2023-05-06T22:24:50.740Z,9.82
2023-05-06T22:27:22.336Z,9.88
2023-05-06T22:29:54.071Z,9.93
2023-05-06T22:32:26.048Z,9.94
2023-05-06T22:34:57.773Z,9.94
2023-05-06T22:37:29.467Z,9.93
2023-05-06T22:40:01.313Z,9.91
2023-05-06T22:42:33.025Z,9.89
2023-05-06T22:45:05.482Z,9.90
2023-05-06T22:47:37.236Z,9.90
2023-05-06T22:50:11.105Z,9.90
2023-05-06T22:52:42.761Z,9.90
2023-05-06T22:55:16.215Z,9.92
2023-05-06T22:57:49.844Z,9.95
2023-05-06T23:00:22.823Z,9.97
2023-05-06T23:02:54.528Z,9.97
2023-05-06T23:05:26.456Z,9.97
2023-05-06T23:07:58.271Z,9.95
2023-05-06T23:10:30.011Z,9.93
2023-05-06T23:13:04.182Z,9.90
2023-05-06T23:15:36.687Z,9.88
2023-05-06T23:18:08.528Z,9.87
2023-05-06T23:20:40.455Z,9.90
2023-05-06T23:23:12.203Z,9.96
2023-05-06T23:25:43.974Z,10.00
2023-05-06T23:28:15.681Z,10.02
2023-05-06T23:30:48.681Z,10.06
2023-05-06T23:33:20.387Z,10.10
2023-05-06T23:35:52.140Z,10.12
2023-05-06T23:38:24.025Z,10.12
2023-05-06T23:40:55.949Z,10.10
2023-05-06T23:43:27.683Z,10.11
2023-05-06T23:45:59.548Z,10.11
2023-05-06T23:48:31.356Z,10.12
2023-05-06T23:51:03.070Z,10.11
2023-05-06T23:53:36.178Z,10.06
2023-05-06T23:56:08.681Z,10.00
2023-05-06T23:58:40.538Z,9.94
